sensor_id;sensor_type;location;lat;lon;timestamp;pressure;altitude;pressure_sealevel;temperature;humidity
26531;BME280;14201;43.188;24.160;2023-07-20T00:07:52;99029.84;;;22.51;83.40
26531;BME280;14201;43.188;24.160;2023-07-20T00:10:18;99036.94;;;22.51;84.17
26531;BME280;14201;43.188;24.160;2023-07-20T00:12:44;99027.94;;;22.58;83.22
26531;BME280;14201;43.188;24.160;2023-07-20T00:15:13;99018.13;;;22.65;83.89
26531;BME280;14201;43.188;24.160;2023-07-20T00:17:38;99026.16;;;22.58;84.37
26531;BME280;14201;43.188;24.160;2023-07-20T00:20:06;99008.69;;;22.45;85.07
26531;BME280;14201;43.188;24.160;2023-07-20T00:22:31;99020.03;;;22.55;83.60
26531;BME280;14201;43.188;24.160;2023-07-20T00:24:57;99016.09;;;22.77;82.74
26531;BME280;14201;43.188;24.160;2023-07-20T00:27:22;99015.72;;;22.99;82.39
26531;BME280;14201;43.188;24.160;2023-07-20T00:29:48;99008.78;;;23.40;78.66
26531;BME280;14201;43.188;24.160;2023-07-20T00:32:13;98996.97;;;23.53;78.34
26531;BME280;14201;43.188;24.160;2023-07-20T00:34:39;98988.94;;;23.56;77.77
26531;BME280;14201;43.188;24.160;2023-07-20T00:37:05;98991.31;;;23.69;78.12
26531;BME280;14201;43.188;24.160;2023-07-20T00:39:30;98983.13;;;23.81;77.09
26531;BME280;14201;43.188;24.160;2023-07-20T00:41:56;98974.19;;;23.84;76.47
26531;BME280;14201;43.188;24.160;2023-07-20T00:44:21;98970.69;;;23.83;76.21
26531;BME280;14201;43.188;24.160;2023-07-20T00:46:47;98988.44;;;23.81;75.75
26531;BME280;14201;43.188;24.160;2023-07-20T00:49:13;98988.28;;;23.89;76.01
26531;BME280;14201;43.188;24.160;2023-07-20T00:51:39;98993.53;;;23.90;75.39
26531;BME280;14201;43.188;24.160;2023-07-20T00:54:05;98985.78;;;23.81;76.01
26531;BME280;14201;43.188;24.160;2023-07-20T00:56:30;98985.69;;;23.84;75.72
26531;BME280;14201;43.188;24.160;2023-07-20T00:58:56;98991.13;;;23.81;76.08
26531;BME280;14201;43.188;24.160;2023-07-20T01:01:22;99008.03;;;23.75;76.04
26531;BME280;14201;43.188;24.160;2023-07-20T01:03:48;99013.38;;;23.75;76.18
26531;BME280;14201;43.188;24.160;2023-07-20T01:12:08;99036.81;;;24.00;76.23
26531;BME280;14201;43.188;24.160;2023-07-20T01:14:35;99023.13;;;24.15;73.89
26531;BME280;14201;43.188;24.160;2023-07-20T01:17:02;99045.31;;;24.16;73.31
26531;BME280;14201;43.188;24.160;2023-07-20T01:19:28;99050.38;;;24.27;73.20
26531;BME280;14201;43.188;24.160;2023-07-20T01:21:59;99028.28;;;24.23;73.70
26531;BME280;14201;43.188;24.160;2023-07-20T01:33:00;99020.06;;;24.34;71.65
26531;BME280;14201;43.188;24.160;2023-07-20T01:35:27;99034.06;;;24.41;71.55
26531;BME280;14201;43.188;24.160;2023-07-20T01:37:56;99030.38;;;24.48;72.38
26531;BME280;14201;43.188;24.160;2023-07-20T01:40:25;99027.56;;;24.54;72.78
26531;BME280;14201;43.188;24.160;2023-07-20T01:42:52;99032.91;;;24.54;72.05
26531;BME280;14201;43.188;24.160;2023-07-20T01:45:17;99044.28;;;24.62;72.16
26531;BME280;14201;43.188;24.160;2023-07-20T01:47:43;99040.75;;;24.60;71.71
26531;BME280;14201;43.188;24.160;2023-07-20T01:50:08;99048.59;;;24.66;71.21
26531;BME280;14201;43.188;24.160;2023-07-20T01:52:34;99045.13;;;24.63;70.50
26531;BME280;14201;43.188;24.160;2023-07-20T01:54:59;99054.19;;;24.55;71.56
26531;BME280;14201;43.188;24.160;2023-07-20T01:57:25;99055.19;;;24.48;72.01
26531;BME280;14201;43.188;24.160;2023-07-20T01:59:50;99056.09;;;24.49;71.73
26531;BME280;14201;43.188;24.160;2023-07-20T02:02:15;99063.94;;;24.56;71.32
26531;BME280;14201;43.188;24.160;2023-07-20T02:04:41;99061.13;;;24.63;70.86
26531;BME280;14201;43.188;24.160;2023-07-20T02:07:06;99045.00;;;24.67;69.93
26531;BME280;14201;43.188;24.160;2023-07-20T02:09:32;99054.91;;;24.62;71.77
26531;BME280;14201;43.188;24.160;2023-07-20T02:11:57;99056.31;;;24.40;72.36
26531;BME280;14201;43.188;24.160;2023-07-20T02:14:22;99055.13;;;24.53;72.46
26531;BME280;14201;43.188;24.160;2023-07-20T02:16:48;99057.72;;;24.56;73.38
26531;BME280;14201;43.188;24.160;2023-07-20T02:19:17;99069.94;;;24.65;72.69
26531;BME280;14201;43.188;24.160;2023-07-20T02:21:43;99059.84;;;24.77;71.81
26531;BME280;14201;43.188;24.160;2023-07-20T02:24:08;99065.16;;;24.77;70.79
26531;BME280;14201;43.188;24.160;2023-07-20T02:26:33;99064.41;;;24.74;70.06
26531;BME280;14201;43.188;24.160;2023-07-20T02:28:59;99065.25;;;24.74;69.63
26531;BME280;14201;43.188;24.160;2023-07-20T02:31:24;99069.72;;;24.74;69.80
26531;BME280;14201;43.188;24.160;2023-07-20T02:33:50;99069.75;;;24.72;69.93
26531;BME280;14201;43.188;24.160;2023-07-20T02:36:15;99067.16;;;24.69;70.51
26531;BME280;14201;43.188;24.160;2023-07-20T02:38:42;99073.56;;;24.62;71.24
26531;BME280;14201;43.188;24.160;2023-07-20T02:41:07;99071.63;;;24.69;71.32
26531;BME280;14201;43.188;24.160;2023-07-20T02:43:33;99079.63;;;24.67;71.65
26531;BME280;14201;43.188;24.160;2023-07-20T02:45:58;99078.38;;;24.45;72.35
26531;BME280;14201;43.188;24.160;2023-07-20T02:48:24;99086.06;;;24.18;74.11
26531;BME280;14201;43.188;24.160;2023-07-20T02:50:49;99079.94;;;24.14;74.14
26531;BME280;14201;43.188;24.160;2023-07-20T02:53:14;99074.78;;;24.07;74.57
26531;BME280;14201;43.188;24.160;2023-07-20T02:55:40;99078.31;;;24.07;74.62
26531;BME280;14201;43.188;24.160;2023-07-20T02:58:05;99076.59;;;24.05;74.85
26531;BME280;14201;43.188;24.160;2023-07-20T03:00:31;99082.81;;;24.04;75.11
26531;BME280;14201;43.188;24.160;2023-07-20T03:02:56;99080.50;;;23.88;74.24
26531;BME280;14201;43.188;24.160;2023-07-20T03:05:22;99071.63;;;23.44;75.47
26531;BME280;14201;43.188;24.160;2023-07-20T03:07:50;99087.28;;;23.59;74.83
26531;BME280;14201;43.188;24.160;2023-07-20T03:10:16;99091.28;;;23.34;75.77
26531;BME280;14201;43.188;24.160;2023-07-20T03:12:41;99084.47;;;23.21;76.11
26531;BME280;14201;43.188;24.160;2023-07-20T03:15:07;99088.19;;;23.09;77.40
26531;BME280;14201;43.188;24.160;2023-07-20T03:17:33;99091.28;;;22.81;79.32
26531;BME280;14201;43.188;24.160;2023-07-20T03:19:58;99084.28;;;22.75;80.05
26531;BME280;14201;43.188;24.160;2023-07-20T03:22:24;99085.84;;;22.89;79.25
26531;BME280;14201;43.188;24.160;2023-07-20T03:24:50;99083.94;;;22.97;79.38
26531;BME280;14201;43.188;24.160;2023-07-20T03:27:16;99090.94;;;23.01;79.35
26531;BME280;14201;43.188;24.160;2023-07-20T03:29:42;99089.19;;;23.02;79.13
26531;BME280;14201;43.188;24.160;2023-07-20T03:32:07;99091.91;;;22.97;79.45
26531;BME280;14201;43.188;24.160;2023-07-20T03:34:33;99100.78;;;22.97;79.53
26531;BME280;14201;43.188;24.160;2023-07-20T03:36:58;99089.94;;;23.11;79.98
26531;BME280;14201;43.188;24.160;2023-07-20T03:39:24;99092.34;;;23.24;79.74
26531;BME280;14201;43.188;24.160;2023-07-20T03:41:49;99089.38;;;23.42;78.96
26531;BME280;14201;43.188;24.160;2023-07-20T03:44:15;99090.91;;;23.55;76.91
26531;BME280;14201;43.188;24.160;2023-07-20T03:46:41;99092.75;;;23.50;77.09
26531;BME280;14201;43.188;24.160;2023-07-20T03:49:06;99095.13;;;23.66;77.13
26531;BME280;14201;43.188;24.160;2023-07-20T03:51:33;99091.22;;;23.84;76.88
26531;BME280;14201;43.188;24.160;2023-07-20T03:53:59;99082.25;;;23.89;76.40
26531;BME280;14201;43.188;24.160;2023-07-20T03:56:24;99084.91;;;23.89;75.54
26531;BME280;14201;43.188;24.160;2023-07-20T03:58:50;99083.25;;;23.84;75.95
26531;BME280;14201;43.188;24.160;2023-07-20T04:01:15;99080.91;;;23.67;76.78
26531;BME280;14201;43.188;24.160;2023-07-20T04:03:42;99083.44;;;23.73;76.79
26531;BME280;14201;43.188;24.160;2023-07-20T04:06:08;99086.03;;;23.79;77.00
26531;BME280;14201;43.188;24.160;2023-07-20T04:08:33;99086.78;;;23.84;76.42
26531;BME280;14201;43.188;24.160;2023-07-20T04:11:01;99098.09;;;23.94;77.32
26531;BME280;14201;43.188;24.160;2023-07-20T04:13:26;99095.28;;;24.02;76.86
26531;BME280;14201;43.188;24.160;2023-07-20T04:15:51;99089.31;;;23.90;77.36
26531;BME280;14201;43.188;24.160;2023-07-20T04:18:17;99090.41;;;23.82;77.91
26531;BME280;14201;43.188;24.160;2023-07-20T04:20:42;99083.63;;;23.64;78.79
26531;BME280;14201;43.188;24.160;2023-07-20T04:23:08;99082.81;;;23.60;79.84
26531;BME280;14201;43.188;24.160;2023-07-20T04:25:33;99077.97;;;23.82;79.19
26531;BME280;14201;43.188;24.160;2023-07-20T04:28:04;99068.94;;;23.89;78.61
26531;BME280;14201;43.188;24.160;2023-07-20T04:30:31;99070.63;;;23.93;78.78
26531;BME280;14201;43.188;24.160;2023-07-20T04:32:57;99074.13;;;23.95;78.21
26531;BME280;14201;43.188;24.160;2023-07-20T04:35:51;99056.41;;;23.51;81.33
26531;BME280;14201;43.188;24.160;2023-07-20T04:38:18;99056.78;;;23.32;82.98
26531;BME280;14201;43.188;24.160;2023-07-20T04:40:48;99029.56;;;23.19;84.21
26531;BME280;14201;43.188;24.160;2023-07-20T04:43:15;99037.97;;;23.42;83.34
26531;BME280;14201;43.188;24.160;2023-07-20T04:45:41;99037.94;;;23.43;83.57
26531;BME280;14201;43.188;24.160;2023-07-20T04:48:10;99044.91;;;23.50;83.41
26531;BME280;14201;43.188;24.160;2023-07-20T04:50:40;99047.91;;;23.77;82.45
26531;BME280;14201;43.188;24.160;2023-07-20T04:53:06;99040.25;;;24.04;81.52
26531;BME280;14201;43.188;24.160;2023-07-20T04:55:32;99032.84;;;24.18;79.83
26531;BME280;14201;43.188;24.160;2023-07-20T04:58:00;99028.09;;;24.31;80.33
26531;BME280;14201;43.188;24.160;2023-07-20T05:00:26;99026.94;;;24.43;78.85
26531;BME280;14201;43.188;24.160;2023-07-20T05:02:51;99021.84;;;24.71;79.85
26531;BME280;14201;43.188;24.160;2023-07-20T05:05:17;99020.88;;;24.73;78.40
26531;BME280;14201;43.188;24.160;2023-07-20T05:07:43;99019.44;;;24.94;78.24
26531;BME280;14201;43.188;24.160;2023-07-20T05:10:09;99025.19;;;25.12;75.97
26531;BME280;14201;43.188;24.160;2023-07-20T05:12:34;99016.34;;;25.11;75.01
26531;BME280;14201;43.188;24.160;2023-07-20T05:15:00;99021.91;;;25.02;74.81
26531;BME280;14201;43.188;24.160;2023-07-20T05:17:25;99029.31;;;24.91;75.32
26531;BME280;14201;43.188;24.160;2023-07-20T05:19:51;99021.13;;;24.99;75.22
26531;BME280;14201;43.188;24.160;2023-07-20T05:22:17;99018.22;;;25.08;75.95
26531;BME280;14201;43.188;24.160;2023-07-20T05:24:42;99020.59;;;25.19;75.33
26531;BME280;14201;43.188;24.160;2023-07-20T05:27:08;99023.56;;;25.41;75.07
26531;BME280;14201;43.188;24.160;2023-07-20T05:29:34;99022.97;;;25.61;73.34
26531;BME280;14201;43.188;24.160;2023-07-20T05:31:59;99025.09;;;25.81;71.50
26531;BME280;14201;43.188;24.160;2023-07-20T05:34:25;99025.69;;;25.90;70.95
26531;BME280;14201;43.188;24.160;2023-07-20T05:37:09;99016.03;;;26.16;72.43
26531;BME280;14201;43.188;24.160;2023-07-20T05:39:34;99017.13;;;26.37;69.54
26531;BME280;14201;43.188;24.160;2023-07-20T05:42:00;99011.47;;;26.75;69.34
26531;BME280;14201;43.188;24.160;2023-07-20T05:44:25;99006.47;;;26.90;67.18
26531;BME280;14201;43.188;24.160;2023-07-20T05:46:51;99022.88;;;27.06;66.19
26531;BME280;14201;43.188;24.160;2023-07-20T05:49:16;99025.75;;;27.25;66.02
26531;BME280;14201;43.188;24.160;2023-07-20T05:51:42;99034.00;;;27.44;64.94
26531;BME280;14201;43.188;24.160;2023-07-20T05:54:08;99034.38;;;27.59;63.99
26531;BME280;14201;43.188;24.160;2023-07-20T05:56:33;99026.41;;;27.81;63.58
26531;BME280;14201;43.188;24.160;2023-07-20T05:58:59;99036.13;;;28.07;62.79
26531;BME280;14201;43.188;24.160;2023-07-20T06:01:24;99040.47;;;28.33;63.26
26531;BME280;14201;43.188;24.160;2023-07-20T06:03:52;99044.13;;;28.54;61.58
26531;BME280;14201;43.188;24.160;2023-07-20T06:06:18;99040.13;;;28.64;61.92
26531;BME280;14201;43.188;24.160;2023-07-20T06:08:44;99040.97;;;28.87;59.89
26531;BME280;14201;43.188;24.160;2023-07-20T06:11:10;99050.81;;;29.07;56.09
26531;BME280;14201;43.188;24.160;2023-07-20T06:13:35;99054.53;;;29.04;57.12
26531;BME280;14201;43.188;24.160;2023-07-20T06:16:01;99051.88;;;29.25;57.26
26531;BME280;14201;43.188;24.160;2023-07-20T06:18:27;99051.75;;;29.28;57.06
26531;BME280;14201;43.188;24.160;2023-07-20T06:20:53;99052.78;;;29.44;52.46
26531;BME280;14201;43.188;24.160;2023-07-20T06:23:19;99049.03;;;29.49;53.90
26531;BME280;14201;43.188;24.160;2023-07-20T06:25:45;99052.56;;;29.90;53.73
26531;BME280;14201;43.188;24.160;2023-07-20T06:28:11;99047.25;;;29.89;52.89
26531;BME280;14201;43.188;24.160;2023-07-20T06:30:37;99047.03;;;30.50;52.90
26531;BME280;14201;43.188;24.160;2023-07-20T06:33:02;99048.19;;;30.81;51.99
26531;BME280;14201;43.188;24.160;2023-07-20T06:35:28;99051.53;;;31.21;51.57
26531;BME280;14201;43.188;24.160;2023-07-20T06:37:53;99043.16;;;31.45;51.01
26531;BME280;14201;43.188;24.160;2023-07-20T06:40:19;99049.16;;;31.83;49.02
26531;BME280;14201;43.188;24.160;2023-07-20T06:42:44;99060.72;;;32.18;48.04
26531;BME280;14201;43.188;24.160;2023-07-20T06:45:10;99057.59;;;32.42;47.71
26531;BME280;14201;43.188;24.160;2023-07-20T06:47:38;99059.50;;;32.72;46.64
26531;BME280;14201;43.188;24.160;2023-07-20T06:50:03;99064.69;;;32.91;45.76
26531;BME280;14201;43.188;24.160;2023-07-20T06:52:29;99060.81;;;33.11;44.03
26531;BME280;14201;43.188;24.160;2023-07-20T06:54:54;99066.75;;;33.18;44.52
26531;BME280;14201;43.188;24.160;2023-07-20T06:57:20;99062.25;;;33.47;43.67
26531;BME280;14201;43.188;24.160;2023-07-20T06:59:45;99065.78;;;33.78;43.54
26531;BME280;14201;43.188;24.160;2023-07-20T07:02:11;99076.22;;;33.84;42.69
26531;BME280;14201;43.188;24.160;2023-07-20T07:04:36;99081.78;;;33.81;42.18
26531;BME280;14201;43.188;24.160;2023-07-20T07:07:01;99090.19;;;33.90;43.05
26531;BME280;14201;43.188;24.160;2023-07-20T07:09:28;99085.25;;;33.54;43.07
26531;BME280;14201;43.188;24.160;2023-07-20T07:11:53;99092.97;;;33.60;45.05
26531;BME280;14201;43.188;24.160;2023-07-20T07:14:19;99092.31;;;34.00;42.38
26531;BME280;14201;43.188;24.160;2023-07-20T07:16:45;99089.81;;;34.11;42.85
26531;BME280;14201;43.188;24.160;2023-07-20T07:19:10;99095.72;;;34.18;42.66
26531;BME280;14201;43.188;24.160;2023-07-20T07:21:36;99104.59;;;34.34;44.04
26531;BME280;14201;43.188;24.160;2023-07-20T07:24:01;99098.69;;;34.42;41.42
26531;BME280;14201;43.188;24.160;2023-07-20T07:26:27;99103.22;;;34.12;43.17
26531;BME280;14201;43.188;24.160;2023-07-20T07:28:52;99101.56;;;34.10;43.17
26531;BME280;14201;43.188;24.160;2023-07-20T07:31:18;99105.09;;;34.26;43.36
26531;BME280;14201;43.188;24.160;2023-07-20T07:33:43;99110.75;;;34.36;43.23
26531;BME280;14201;43.188;24.160;2023-07-20T07:36:08;99122.94;;;34.43;42.32
26531;BME280;14201;43.188;24.160;2023-07-20T07:38:34;99129.47;;;34.54;42.82
26531;BME280;14201;43.188;24.160;2023-07-20T07:40:59;99126.09;;;34.50;42.74
26531;BME280;14201;43.188;24.160;2023-07-20T07:43:25;99134.13;;;34.51;42.63
26531;BME280;14201;43.188;24.160;2023-07-20T07:45:53;99141.09;;;34.27;42.37
26531;BME280;14201;43.188;24.160;2023-07-20T07:48:18;99146.22;;;34.17;41.33
26531;BME280;14201;43.188;24.160;2023-07-20T07:50:45;99165.47;;;33.97;42.32
26531;BME280;14201;43.188;24.160;2023-07-20T07:53:11;99182.75;;;33.80;42.05
26531;BME280;14201;43.188;24.160;2023-07-20T07:55:36;99196.56;;;33.13;42.81
26531;BME280;14201;43.188;24.160;2023-07-20T07:58:02;99217.28;;;32.81;43.35
26531;BME280;14201;43.188;24.160;2023-07-20T08:00:27;99231.28;;;32.38;43.84
26531;BME280;14201;43.188;24.160;2023-07-20T08:02:52;99241.81;;;32.09;44.63
26531;BME280;14201;43.188;24.160;2023-07-20T08:05:18;99258.41;;;31.83;44.66
26531;BME280;14201;43.188;24.160;2023-07-20T08:07:44;99274.97;;;31.38;46.14
26531;BME280;14201;43.188;24.160;2023-07-20T08:10:09;99270.38;;;31.40;46.45
26531;BME280;14201;43.188;24.160;2023-07-20T08:12:35;99270.75;;;31.52;47.27
26531;BME280;14201;43.188;24.160;2023-07-20T08:15:01;99265.91;;;31.22;48.06
26531;BME280;14201;43.188;24.160;2023-07-20T08:17:27;99250.56;;;31.05;47.52
26531;BME280;14201;43.188;24.160;2023-07-20T08:19:52;99239.56;;;30.92;46.87
26531;BME280;14201;43.188;24.160;2023-07-20T08:22:18;99220.47;;;30.97;46.97
26531;BME280;14201;43.188;24.160;2023-07-20T08:24:44;99203.00;;;31.06;47.14
26531;BME280;14201;43.188;24.160;2023-07-20T08:27:10;99207.72;;;31.19;46.63
26531;BME280;14201;43.188;24.160;2023-07-20T08:29:36;99196.78;;;31.23;46.17
26531;BME280;14201;43.188;24.160;2023-07-20T08:32:03;99174.72;;;31.16;47.35
26531;BME280;14201;43.188;24.160;2023-07-20T08:34:29;99143.66;;;31.09;47.51
26531;BME280;14201;43.188;24.160;2023-07-20T08:36:55;99153.19;;;31.16;47.97
26531;BME280;14201;43.188;24.160;2023-07-20T08:39:21;99186.72;;;31.09;49.57
26531;BME280;14201;43.188;24.160;2023-07-20T08:41:48;99191.63;;;31.00;49.26
26531;BME280;14201;43.188;24.160;2023-07-20T08:44:14;99196.38;;;31.13;48.31
26531;BME280;14201;43.188;24.160;2023-07-20T08:46:40;99194.78;;;31.09;47.98
26531;BME280;14201;43.188;24.160;2023-07-20T08:49:06;99204.00;;;31.22;47.83
26531;BME280;14201;43.188;24.160;2023-07-20T08:51:33;99198.66;;;31.39;48.95
26531;BME280;14201;43.188;24.160;2023-07-20T08:53:59;99201.56;;;31.17;48.45
26531;BME280;14201;43.188;24.160;2023-07-20T08:56:26;99207.97;;;30.96;49.49
26531;BME280;14201;43.188;24.160;2023-07-20T08:58:53;99209.13;;;31.09;48.58
26531;BME280;14201;43.188;24.160;2023-07-20T09:01:19;99202.34;;;31.19;48.46
26531;BME280;14201;43.188;24.160;2023-07-20T09:03:46;99194.34;;;31.89;45.35
26531;BME280;14201;43.188;24.160;2023-07-20T09:06:13;99195.31;;;32.22;44.27
26531;BME280;14201;43.188;24.160;2023-07-20T09:08:39;99192.13;;;32.64;44.53
26531;BME280;14201;43.188;24.160;2023-07-20T09:11:06;99196.47;;;32.99;43.92
26531;BME280;14201;43.188;24.160;2023-07-20T09:13:35;99186.50;;;33.47;44.40
26531;BME280;14201;43.188;24.160;2023-07-20T09:16:00;99180.34;;;33.89;40.93
26531;BME280;14201;43.188;24.160;2023-07-20T09:18:31;99172.78;;;34.25;39.39
26531;BME280;14201;43.188;24.160;2023-07-20T09:21:04;99174.16;;;33.27;39.46
26531;BME280;14201;43.188;24.160;2023-07-20T09:23:37;99168.78;;;33.11;38.68
26531;BME280;14201;43.188;24.160;2023-07-20T09:26:11;99157.66;;;33.92;37.88
26531;BME280;14201;43.188;24.160;2023-07-20T09:28:52;99158.94;;;34.29;37.33
26531;BME280;14201;43.188;24.160;2023-07-20T09:31:21;99162.59;;;34.71;36.96
26531;BME280;14201;43.188;24.160;2023-07-20T09:33:47;99157.75;;;35.18;37.01
26531;BME280;14201;43.188;24.160;2023-07-20T09:36:13;99159.97;;;35.52;36.30
26531;BME280;14201;43.188;24.160;2023-07-20T09:38:42;99153.31;;;35.30;35.81
26531;BME280;14201;43.188;24.160;2023-07-20T09:41:13;99144.53;;;34.58;36.25
26531;BME280;14201;43.188;24.160;2023-07-20T09:43:39;99146.38;;;34.43;37.46
26531;BME280;14201;43.188;24.160;2023-07-20T09:46:05;99143.16;;;33.79;38.71
26531;BME280;14201;43.188;24.160;2023-07-20T09:48:31;99136.72;;;33.81;39.33
26531;BME280;14201;43.188;24.160;2023-07-20T09:50:57;99133.13;;;33.66;39.26
26531;BME280;14201;43.188;24.160;2023-07-20T09:53:24;99129.59;;;34.09;37.43
26531;BME280;14201;43.188;24.160;2023-07-20T09:55:50;99120.50;;;34.39;38.28
26531;BME280;14201;43.188;24.160;2023-07-20T09:58:17;99114.81;;;34.00;39.77
26531;BME280;14201;43.188;24.160;2023-07-20T10:00:44;99110.31;;;33.11;40.50
26531;BME280;14201;43.188;24.160;2023-07-20T10:03:14;99113.13;;;33.08;41.70
26531;BME280;14201;43.188;24.160;2023-07-20T10:05:45;99098.06;;;33.20;40.16
26531;BME280;14201;43.188;24.160;2023-07-20T10:08:14;99100.47;;;32.63;42.17
26531;BME280;14201;43.188;24.160;2023-07-20T10:10:42;99084.22;;;32.32;41.42
26531;BME280;14201;43.188;24.160;2023-07-20T10:13:16;99073.94;;;32.39;43.90
26531;BME280;14201;43.188;24.160;2023-07-20T10:21:23;99060.38;;;33.78;39.90
26531;BME280;14201;43.188;24.160;2023-07-20T10:23:49;99061.34;;;33.91;39.45
26531;BME280;14201;43.188;24.160;2023-07-20T10:26:15;99047.84;;;33.32;37.74
26531;BME280;14201;43.188;24.160;2023-07-20T10:28:41;99054.13;;;33.32;38.15
26531;BME280;14201;43.188;24.160;2023-07-20T10:31:08;99055.28;;;32.98;38.80
26531;BME280;14201;43.188;24.160;2023-07-20T10:33:36;99029.47;;;33.08;38.28
26531;BME280;14201;43.188;24.160;2023-07-20T10:36:04;99016.13;;;32.91;39.89
26531;BME280;14201;43.188;24.160;2023-07-20T10:41:42;99038.00;;;32.86;40.13
26531;BME280;14201;43.188;24.160;2023-07-20T10:44:08;99032.72;;;32.69;39.61
26531;BME280;14201;43.188;24.160;2023-07-20T10:46:42;98997.81;;;32.66;40.08
26531;BME280;14201;43.188;24.160;2023-07-20T10:49:10;98995.34;;;32.77;39.97
26531;BME280;14201;43.188;24.160;2023-07-20T10:51:46;98985.94;;;32.84;38.13
26531;BME280;14201;43.188;24.160;2023-07-20T10:56:42;98978.41;;;33.20;37.47
26531;BME280;14201;43.188;24.160;2023-07-20T10:59:36;98980.06;;;33.22;38.07
26531;BME280;14201;43.188;24.160;2023-07-20T11:02:07;98988.44;;;33.18;37.99
26531;BME280;14201;43.188;24.160;2023-07-20T11:04:40;98990.88;;;33.51;35.70
26531;BME280;14201;43.188;24.160;2023-07-20T11:07:06;98986.81;;;33.44;36.45
26531;BME280;14201;43.188;24.160;2023-07-20T11:09:38;98990.72;;;33.68;36.45
26531;BME280;14201;43.188;24.160;2023-07-20T11:12:11;98981.25;;;33.76;34.79
26531;BME280;14201;43.188;24.160;2023-07-20T11:14:41;98987.00;;;33.98;34.37
26531;BME280;14201;43.188;24.160;2023-07-20T11:17:14;98986.00;;;34.28;35.01
26531;BME280;14201;43.188;24.160;2023-07-20T11:19:41;98991.34;;;34.42;35.72
26531;BME280;14201;43.188;24.160;2023-07-20T11:22:07;98989.16;;;34.35;36.49
26531;BME280;14201;43.188;24.160;2023-07-20T11:24:44;99000.00;;;34.06;36.24
26531;BME280;14201;43.188;24.160;2023-07-20T11:27:10;98997.31;;;34.20;37.63
26531;BME280;14201;43.188;24.160;2023-07-20T11:29:37;98989.84;;;34.24;34.29
26531;BME280;14201;43.188;24.160;2023-07-20T11:32:03;98981.44;;;34.56;32.91
26531;BME280;14201;43.188;24.160;2023-07-20T11:34:30;98980.03;;;35.03;32.98
26531;BME280;14201;43.188;24.160;2023-07-20T11:36:56;98974.25;;;35.35;32.46
26531;BME280;14201;43.188;24.160;2023-07-20T11:39:22;98970.44;;;35.76;33.27
26531;BME280;14201;43.188;24.160;2023-07-20T11:41:51;98965.00;;;36.13;31.24
26531;BME280;14201;43.188;24.160;2023-07-20T11:44:17;98963.22;;;36.37;32.47
26531;BME280;14201;43.188;24.160;2023-07-20T11:46:44;98960.81;;;36.33;32.45
26531;BME280;14201;43.188;24.160;2023-07-20T11:49:10;98953.50;;;36.22;33.42
26531;BME280;14201;43.188;24.160;2023-07-20T11:51:36;98956.72;;;36.27;33.51
26531;BME280;14201;43.188;24.160;2023-07-20T11:54:04;98944.75;;;36.05;35.24
26531;BME280;14201;43.188;24.160;2023-07-20T11:56:30;98940.91;;;35.84;34.85
26531;BME280;14201;43.188;24.160;2023-07-20T11:58:58;98948.19;;;36.20;34.82
26531;BME280;14201;43.188;24.160;2023-07-20T12:01:26;98931.00;;;36.68;33.09
26531;BME280;14201;43.188;24.160;2023-07-20T12:04:00;98928.47;;;36.89;34.21
26531;BME280;14201;43.188;24.160;2023-07-20T12:06:28;98928.19;;;37.16;31.56
26531;BME280;14201;43.188;24.160;2023-07-20T12:08:55;98920.66;;;37.42;30.94
26531;BME280;14201;43.188;24.160;2023-07-20T12:11:35;98913.97;;;37.80;30.09
26531;BME280;14201;43.188;24.160;2023-07-20T12:14:02;98914.44;;;37.97;29.82
26531;BME280;14201;43.188;24.160;2023-07-20T12:16:28;98912.47;;;38.10;28.35
26531;BME280;14201;43.188;24.160;2023-07-20T12:19:10;98925.16;;;38.21;28.37
26531;BME280;14201;43.188;24.160;2023-07-20T12:21:36;98909.78;;;38.31;29.78
26531;BME280;14201;43.188;24.160;2023-07-20T12:24:02;98916.25;;;38.51;29.24
26531;BME280;14201;43.188;24.160;2023-07-20T12:26:31;98909.44;;;38.57;29.17
26531;BME280;14201;43.188;24.160;2023-07-20T12:28:57;98907.84;;;38.75;29.96
26531;BME280;14201;43.188;24.160;2023-07-20T12:31:23;98910.00;;;38.72;29.30
26531;BME280;14201;43.188;24.160;2023-07-20T12:33:49;98914.38;;;38.84;29.72
26531;BME280;14201;43.188;24.160;2023-07-20T12:36:15;98912.84;;;38.91;29.47
26531;BME280;14201;43.188;24.160;2023-07-20T12:38:40;98900.28;;;39.00;30.35
26531;BME280;14201;43.188;24.160;2023-07-20T12:41:07;98908.94;;;39.05;29.71
26531;BME280;14201;43.188;24.160;2023-07-20T12:43:32;98905.75;;;39.00;29.87
26531;BME280;14201;43.188;24.160;2023-07-20T12:45:58;98902.94;;;38.69;29.57
26531;BME280;14201;43.188;24.160;2023-07-20T12:48:24;98898.94;;;38.73;30.43
26531;BME280;14201;43.188;24.160;2023-07-20T12:50:50;98905.00;;;38.77;29.10
26531;BME280;14201;43.188;24.160;2023-07-20T12:53:15;98902.00;;;38.59;30.11
26531;BME280;14201;43.188;24.160;2023-07-20T12:55:41;98901.16;;;38.58;30.47
26531;BME280;14201;43.188;24.160;2023-07-20T12:58:07;98901.47;;;38.65;29.63
26531;BME280;14201;43.188;24.160;2023-07-20T13:00:32;98899.34;;;38.69;29.79
26531;BME280;14201;43.188;24.160;2023-07-20T13:02:58;98902.44;;;38.11;30.18
26531;BME280;14201;43.188;24.160;2023-07-20T13:05:23;98900.50;;;38.34;31.27
26531;BME280;14201;43.188;24.160;2023-07-20T13:07:49;98896.03;;;38.33;30.52
26531;BME280;14201;43.188;24.160;2023-07-20T13:10:14;98904.56;;;38.39;30.24
26531;BME280;14201;43.188;24.160;2023-07-20T13:12:40;98893.66;;;38.39;30.43
26531;BME280;14201;43.188;24.160;2023-07-20T13:15:06;98896.47;;;38.49;31.19
26531;BME280;14201;43.188;24.160;2023-07-20T13:17:35;98903.16;;;38.45;30.83
26531;BME280;14201;43.188;24.160;2023-07-20T13:20:01;98908.91;;;38.31;30.37